sensor_id;sensor_type;location;lat;lon;timestamp;temperature;humidity
19060;DHT22;9663;48.996;8.334;2022-07-22T00:02:21;23.30;46.60
19060;DHT22;9663;48.996;8.334;2022-07-22T00:04:47;23.30;46.70
19060;DHT22;9663;48.996;8.334;2022-07-22T00:07:13;23.30;46.70
19060;DHT22;9663;48.996;8.334;2022-07-22T00:09:40;23.30;46.70
19060;DHT22;9663;48.996;8.334;2022-07-22T00:12:06;23.40;46.70
19060;DHT22;9663;48.996;8.334;2022-07-22T00:14:31;23.40;46.70
19060;DHT22;9663;48.996;8.334;2022-07-22T00:16:57;23.40;46.70
19060;DHT22;9663;48.996;8.334;2022-07-22T00:19:23;23.50;46.80
19060;DHT22;9663;48.996;8.334;2022-07-22T00:21:50;23.50;46.80
19060;DHT22;9663;48.996;8.334;2022-07-22T00:24:17;23.50;46.80
19060;DHT22;9663;48.996;8.334;2022-07-22T00:26:43;23.50;46.90
19060;DHT22;9663;48.996;8.334;2022-07-22T00:29:09;23.50;46.90
19060;DHT22;9663;48.996;8.334;2022-07-22T00:31:34;23.50;46.90
19060;DHT22;9663;48.996;8.334;2022-07-22T00:34:01;23.50;46.90
19060;DHT22;9663;48.996;8.334;2022-07-22T00:36:28;23.50;47.00
19060;DHT22;9663;48.996;8.334;2022-07-22T00:38:54;23.50;47.00
19060;DHT22;9663;48.996;8.334;2022-07-22T00:41:20;23.40;47.00
19060;DHT22;9663;48.996;8.334;2022-07-22T00:44:00;23.50;47.10
19060;DHT22;9663;48.996;8.334;2022-07-22T00:46:28;23.50;48.00
19060;DHT22;9663;48.996;8.334;2022-07-22T00:48:56;23.40;47.20
19060;DHT22;9663;48.996;8.334;2022-07-22T00:51:24;23.40;47.30
19060;DHT22;9663;48.996;8.334;2022-07-22T00:53:53;23.30;47.40
19060;DHT22;9663;48.996;8.334;2022-07-22T00:56:20;23.30;47.40
19060;DHT22;9663;48.996;8.334;2022-07-22T00:58:47;23.30;47.50
19060;DHT22;9663;48.996;8.334;2022-07-22T01:01:15;23.30;47.60
19060;DHT22;9663;48.996;8.334;2022-07-22T01:03:41;23.30;47.60
19060;DHT22;9663;48.996;8.334;2022-07-22T01:06:07;23.30;47.70
19060;DHT22;9663;48.996;8.334;2022-07-22T01:08:33;23.30;47.70
19060;DHT22;9663;48.996;8.334;2022-07-22T01:11:09;23.30;47.80
19060;DHT22;9663;48.996;8.334;2022-07-22T01:13:37;23.30;48.50
19060;DHT22;9663;48.996;8.334;2022-07-22T01:16:07;23.30;47.80
19060;DHT22;9663;48.996;8.334;2022-07-22T01:18:34;23.20;48.10
19060;DHT22;9663;48.996;8.334;2022-07-22T01:21:00;23.20;48.00
19060;DHT22;9663;48.996;8.334;2022-07-22T01:23:26;23.20;48.00
19060;DHT22;9663;48.996;8.334;2022-07-22T01:25:52;23.10;48.10
19060;DHT22;9663;48.996;8.334;2022-07-22T01:28:18;23.10;48.20
19060;DHT22;9663;48.996;8.334;2022-07-22T01:30:45;23.00;48.30
19060;DHT22;9663;48.996;8.334;2022-07-22T01:33:10;23.00;48.40
19060;DHT22;9663;48.996;8.334;2022-07-22T01:35:36;23.00;48.40
19060;DHT22;9663;48.996;8.334;2022-07-22T01:38:02;23.00;48.40
19060;DHT22;9663;48.996;8.334;2022-07-22T01:40:28;23.00;48.50
19060;DHT22;9663;48.996;8.334;2022-07-22T01:42:53;23.00;48.60
19060;DHT22;9663;48.996;8.334;2022-07-22T01:45:19;22.90;48.60
19060;DHT22;9663;48.996;8.334;2022-07-22T01:47:45;22.80;48.60
19060;DHT22;9663;48.996;8.334;2022-07-22T01:50:11;22.90;48.80
19060;DHT22;9663;48.996;8.334;2022-07-22T01:52:38;22.80;48.80
19060;DHT22;9663;48.996;8.334;2022-07-22T01:55:06;22.90;48.90
19060;DHT22;9663;48.996;8.334;2022-07-22T01:57:33;22.80;49.10
19060;DHT22;9663;48.996;8.334;2022-07-22T01:59:58;22.80;49.00
19060;DHT22;9663;48.996;8.334;2022-07-22T02:02:24;22.80;49.10
19060;DHT22;9663;48.996;8.334;2022-07-22T02:04:50;22.80;49.10
19060;DHT22;9663;48.996;8.334;2022-07-22T02:07:15;22.70;49.80
19060;DHT22;9663;48.996;8.334;2022-07-22T02:09:41;22.80;49.20
19060;DHT22;9663;48.996;8.334;2022-07-22T02:12:07;22.70;49.20
19060;DHT22;9663;48.996;8.334;2022-07-22T02:14:33;22.70;49.40
19060;DHT22;9663;48.996;8.334;2022-07-22T02:16:59;22.70;49.40
19060;DHT22;9663;48.996;8.334;2022-07-22T02:19:25;22.70;49.40
19060;DHT22;9663;48.996;8.334;2022-07-22T02:21:50;22.70;49.60
19060;DHT22;9663;48.996;8.334;2022-07-22T02:24:16;22.60;49.60
19060;DHT22;9663;48.996;8.334;2022-07-22T02:26:42;22.70;49.60
19060;DHT22;9663;48.996;8.334;2022-07-22T02:29:07;22.60;49.60
19060;DHT22;9663;48.996;8.334;2022-07-22T02:31:33;22.60;49.70
19060;DHT22;9663;48.996;8.334;2022-07-22T02:33:59;22.60;49.80
19060;DHT22;9663;48.996;8.334;2022-07-22T02:36:24;22.60;49.80
19060;DHT22;9663;48.996;8.334;2022-07-22T02:38:50;22.60;49.90
19060;DHT22;9663;48.996;8.334;2022-07-22T02:41:15;22.50;49.90
19060;DHT22;9663;48.996;8.334;2022-07-22T02:43:41;22.50;50.00
19060;DHT22;9663;48.996;8.334;2022-07-22T02:46:07;22.50;50.00
19060;DHT22;9663;48.996;8.334;2022-07-22T02:48:32;22.50;50.00
19060;DHT22;9663;48.996;8.334;2022-07-22T02:50:59;22.40;50.10
19060;DHT22;9663;48.996;8.334;2022-07-22T02:53:25;22.50;50.20
19060;DHT22;9663;48.996;8.334;2022-07-22T02:55:50;22.50;50.30
19060;DHT22;9663;48.996;8.334;2022-07-22T02:58:16;22.40;50.20
19060;DHT22;9663;48.996;8.334;2022-07-22T03:00:42;22.40;50.30
19060;DHT22;9663;48.996;8.334;2022-07-22T03:03:08;22.40;50.30
19060;DHT22;9663;48.996;8.334;2022-07-22T03:05:33;22.40;50.40
19060;DHT22;9663;48.996;8.334;2022-07-22T03:07:59;22.30;50.40
19060;DHT22;9663;48.996;8.334;2022-07-22T03:10:25;22.30;50.50
19060;DHT22;9663;48.996;8.334;2022-07-22T03:12:51;22.30;50.60
19060;DHT22;9663;48.996;8.334;2022-07-22T03:15:16;22.30;50.70
19060;DHT22;9663;48.996;8.334;2022-07-22T03:17:42;22.20;50.70
19060;DHT22;9663;48.996;8.334;2022-07-22T03:20:10;22.30;50.80
19060;DHT22;9663;48.996;8.334;2022-07-22T03:22:37;22.20;50.90
19060;DHT22;9663;48.996;8.334;2022-07-22T03:25:03;22.20;50.90
19060;DHT22;9663;48.996;8.334;2022-07-22T03:27:29;22.20;50.90
19060;DHT22;9663;48.996;8.334;2022-07-22T03:29:55;22.10;51.60
19060;DHT22;9663;48.996;8.334;2022-07-22T03:32:21;22.10;50.90
19060;DHT22;9663;48.996;8.334;2022-07-22T03:34:46;22.10;51.10
19060;DHT22;9663;48.996;8.334;2022-07-22T03:37:12;22.00;51.20
19060;DHT22;9663;48.996;8.334;2022-07-22T03:39:38;22.00;51.20
19060;DHT22;9663;48.996;8.334;2022-07-22T03:42:04;22.00;51.40
19060;DHT22;9663;48.996;8.334;2022-07-22T03:44:30;22.00;51.40
19060;DHT22;9663;48.996;8.334;2022-07-22T03:46:55;22.00;51.40
19060;DHT22;9663;48.996;8.334;2022-07-22T03:49:21;22.00;51.50
19060;DHT22;9663;48.996;8.334;2022-07-22T03:51:47;21.90;51.50
19060;DHT22;9663;48.996;8.334;2022-07-22T03:54:12;21.90;51.60
19060;DHT22;9663;48.996;8.334;2022-07-22T03:56:38;21.90;51.60
19060;DHT22;9663;48.996;8.334;2022-07-22T03:59:04;21.90;51.70
19060;DHT22;9663;48.996;8.334;2022-07-22T04:01:30;21.90;51.70
19060;DHT22;9663;48.996;8.334;2022-07-22T04:03:55;21.90;51.80
19060;DHT22;9663;48.996;8.334;2022-07-22T04:06:22;21.80;51.80
19060;DHT22;9663;48.996;8.334;2022-07-22T04:08:47;21.90;51.90
19060;DHT22;9663;48.996;8.334;2022-07-22T04:11:14;21.80;51.90
19060;DHT22;9663;48.996;8.334;2022-07-22T04:13:39;21.80;52.00
19060;DHT22;9663;48.996;8.334;2022-07-22T04:16:05;21.80;52.00
19060;DHT22;9663;48.996;8.334;2022-07-22T04:18:31;21.80;52.10
19060;DHT22;9663;48.996;8.334;2022-07-22T04:20:58;21.80;52.10
19060;DHT22;9663;48.996;8.334;2022-07-22T04:23:24;21.90;52.10
19060;DHT22;9663;48.996;8.334;2022-07-22T04:25:49;21.90;52.10
19060;DHT22;9663;48.996;8.334;2022-07-22T04:28:15;21.90;52.10
19060;DHT22;9663;48.996;8.334;2022-07-22T04:30:41;21.90;52.20
19060;DHT22;9663;48.996;8.334;2022-07-22T04:33:07;21.90;52.10
19060;DHT22;9663;48.996;8.334;2022-07-22T04:35:33;22.00;52.20
19060;DHT22;9663;48.996;8.334;2022-07-22T04:37:59;22.00;52.30
19060;DHT22;9663;48.996;8.334;2022-07-22T04:40:25;21.90;52.20
19060;DHT22;9663;48.996;8.334;2022-07-22T04:42:50;22.00;52.30
19060;DHT22;9663;48.996;8.334;2022-07-22T04:45:16;22.00;52.40
19060;DHT22;9663;48.996;8.334;2022-07-22T04:47:42;22.00;52.30
19060;DHT22;9663;48.996;8.334;2022-07-22T04:50:08;22.10;52.30
19060;DHT22;9663;48.996;8.334;2022-07-22T04:52:34;22.10;52.30
19060;DHT22;9663;48.996;8.334;2022-07-22T04:54:59;22.10;52.30
19060;DHT22;9663;48.996;8.334;2022-07-22T04:57:26;22.10;52.30
19060;DHT22;9663;48.996;8.334;2022-07-22T04:59:53;22.10;52.50
19060;DHT22;9663;48.996;8.334;2022-07-22T05:02:19;22.20;52.40
19060;DHT22;9663;48.996;8.334;2022-07-22T05:04:45;22.20;52.40
19060;DHT22;9663;48.996;8.334;2022-07-22T05:07:11;22.30;52.40
19060;DHT22;9663;48.996;8.334;2022-07-22T05:09:37;22.20;52.30
19060;DHT22;9663;48.996;8.334;2022-07-22T05:12:03;22.20;52.40
19060;DHT22;9663;48.996;8.334;2022-07-22T05:14:29;22.20;52.30
19060;DHT22;9663;48.996;8.334;2022-07-22T05:16:55;22.30;52.40
19060;DHT22;9663;48.996;8.334;2022-07-22T05:19:21;22.30;52.40
19060;DHT22;9663;48.996;8.334;2022-07-22T05:21:46;22.30;52.60
19060;DHT22;9663;48.996;8.334;2022-07-22T05:24:12;22.30;52.50
19060;DHT22;9663;48.996;8.334;2022-07-22T05:26:38;22.40;52.50
19060;DHT22;9663;48.996;8.334;2022-07-22T05:29:04;22.40;52.40
19060;DHT22;9663;48.996;8.334;2022-07-22T05:31:30;22.40;52.40
19060;DHT22;9663;48.996;8.334;2022-07-22T05:33:56;22.50;52.50
19060;DHT22;9663;48.996;8.334;2022-07-22T05:36:22;22.60;52.50
19060;DHT22;9663;48.996;8.334;2022-07-22T05:38:47;22.60;52.40
19060;DHT22;9663;48.996;8.334;2022-07-22T05:41:13;22.60;52.40
19060;DHT22;9663;48.996;8.334;2022-07-22T05:43:39;22.70;52.40
19060;DHT22;9663;48.996;8.334;2022-07-22T05:46:05;22.70;52.40
19060;DHT22;9663;48.996;8.334;2022-07-22T05:48:32;22.70;52.30
19060;DHT22;9663;48.996;8.334;2022-07-22T05:50:58;22.70;52.30
19060;DHT22;9663;48.996;8.334;2022-07-22T05:53:24;22.70;52.30
19060;DHT22;9663;48.996;8.334;2022-07-22T05:55:50;22.80;52.20
19060;DHT22;9663;48.996;8.334;2022-07-22T05:58:15;22.90;52.30
19060;DHT22;9663;48.996;8.334;2022-07-22T06:00:41;22.90;52.30
19060;DHT22;9663;48.996;8.334;2022-07-22T06:03:07;23.00;52.40
19060;DHT22;9663;48.996;8.334;2022-07-22T06:05:33;23.10;52.40
19060;DHT22;9663;48.996;8.334;2022-07-22T06:08:01;23.10;52.40
19060;DHT22;9663;48.996;8.334;2022-07-22T06:10:27;23.20;52.40
19060;DHT22;9663;48.996;8.334;2022-07-22T06:12:52;23.30;52.30
19060;DHT22;9663;48.996;8.334;2022-07-22T06:15:18;23.40;52.30
19060;DHT22;9663;48.996;8.334;2022-07-22T06:17:44;23.40;52.30
19060;DHT22;9663;48.996;8.334;2022-07-22T06:20:10;23.50;52.20
19060;DHT22;9663;48.996;8.334;2022-07-22T06:22:35;23.60;52.10
19060;DHT22;9663;48.996;8.334;2022-07-22T06:25:01;23.70;52.20
19060;DHT22;9663;48.996;8.334;2022-07-22T06:27:27;23.70;52.20
19060;DHT22;9663;48.996;8.334;2022-07-22T06:29:53;23.80;52.00
19060;DHT22;9663;48.996;8.334;2022-07-22T06:32:18;23.80;51.90
19060;DHT22;9663;48.996;8.334;2022-07-22T06:34:44;23.90;51.90
19060;DHT22;9663;48.996;8.334;2022-07-22T06:37:10;23.90;51.90
19060;DHT22;9663;48.996;8.334;2022-07-22T06:39:36;24.00;51.80
19060;DHT22;9663;48.996;8.334;2022-07-22T06:42:02;24.10;51.80
19060;DHT22;9663;48.996;8.334;2022-07-22T06:44:27;24.10;52.40
19060;DHT22;9663;48.996;8.334;2022-07-22T06:46:53;24.10;51.70
19060;DHT22;9663;48.996;8.334;2022-07-22T06:49:19;24.20;51.80
19060;DHT22;9663;48.996;8.334;2022-07-22T06:51:44;24.30;51.70
19060;DHT22;9663;48.996;8.334;2022-07-22T06:54:10;24.30;51.50
19060;DHT22;9663;48.996;8.334;2022-07-22T06:56:36;24.30;51.40
19060;DHT22;9663;48.996;8.334;2022-07-22T06:59:01;24.40;51.50
19060;DHT22;9663;48.996;8.334;2022-07-22T07:01:27;24.50;51.40
19060;DHT22;9663;48.996;8.334;2022-07-22T07:03:53;24.60;51.40
19060;DHT22;9663;48.996;8.334;2022-07-22T07:06:19;24.60;51.40
19060;DHT22;9663;48.996;8.334;2022-07-22T07:08:45;24.70;51.40
19060;DHT22;9663;48.996;8.334;2022-07-22T07:11:11;24.80;51.40
19060;DHT22;9663;48.996;8.334;2022-07-22T07:13:36;24.80;51.20
19060;DHT22;9663;48.996;8.334;2022-07-22T07:16:02;24.90;51.10
19060;DHT22;9663;48.996;8.334;2022-07-22T07:18:28;25.00;51.10
19060;DHT22;9663;48.996;8.334;2022-07-22T07:20:54;25.00;51.00
19060;DHT22;9663;48.996;8.334;2022-07-22T07:23:21;25.10;50.90
19060;DHT22;9663;48.996;8.334;2022-07-22T07:25:47;25.20;51.00
19060;DHT22;9663;48.996;8.334;2022-07-22T07:28:12;25.30;50.80
19060;DHT22;9663;48.996;8.334;2022-07-22T07:30:38;25.30;50.80
19060;DHT22;9663;48.996;8.334;2022-07-22T07:33:04;25.40;50.70
19060;DHT22;9663;48.996;8.334;2022-07-22T07:35:30;25.40;50.70
19060;DHT22;9663;48.996;8.334;2022-07-22T07:37:55;25.50;50.70
19060;DHT22;9663;48.996;8.334;2022-07-22T07:40:21;25.60;50.60
19060;DHT22;9663;48.996;8.334;2022-07-22T07:42:47;25.60;50.50
19060;DHT22;9663;48.996;8.334;2022-07-22T07:45:12;25.70;50.40
19060;DHT22;9663;48.996;8.334;2022-07-22T07:47:39;25.70;50.40
19060;DHT22;9663;48.996;8.334;2022-07-22T07:50:06;25.80;50.50
19060;DHT22;9663;48.996;8.334;2022-07-22T07:52:40;25.90;50.50
19060;DHT22;9663;48.996;8.334;2022-07-22T07:55:08;26.00;50.60
19060;DHT22;9663;48.996;8.334;2022-07-22T07:57:35;26.00;50.40
19060;DHT22;9663;48.996;8.334;2022-07-22T08:00:03;26.10;50.30
19060;DHT22;9663;48.996;8.334;2022-07-22T08:02:33;26.20;50.40
19060;DHT22;9663;48.996;8.334;2022-07-22T08:04:58;26.30;50.30
19060;DHT22;9663;48.996;8.334;2022-07-22T08:07:25;26.30;50.20
19060;DHT22;9663;48.996;8.334;2022-07-22T08:09:51;26.50;50.30
19060;DHT22;9663;48.996;8.334;2022-07-22T08:12:17;26.60;50.20
19060;DHT22;9663;48.996;8.334;2022-07-22T08:14:42;26.70;50.00
19060;DHT22;9663;48.996;8.334;2022-07-22T08:17:08;26.70;50.00
19060;DHT22;9663;48.996;8.334;2022-07-22T08:19:34;26.80;49.90
19060;DHT22;9663;48.996;8.334;2022-07-22T08:21:59;26.80;49.90
19060;DHT22;9663;48.996;8.334;2022-07-22T08:24:25;27.00;50.00
19060;DHT22;9663;48.996;8.334;2022-07-22T08:26:51;27.00;49.70
19060;DHT22;9663;48.996;8.334;2022-07-22T08:29:17;27.10;49.70
19060;DHT22;9663;48.996;8.334;2022-07-22T08:31:43;27.20;49.60
19060;DHT22;9663;48.996;8.334;2022-07-22T08:34:08;27.30;49.60
19060;DHT22;9663;48.996;8.334;2022-07-22T08:36:34;27.40;49.60
19060;DHT22;9663;48.996;8.334;2022-07-22T08:39:00;27.50;49.50
19060;DHT22;9663;48.996;8.334;2022-07-22T08:41:26;27.50;49.30
19060;DHT22;9663;48.996;8.334;2022-07-22T08:43:52;27.60;49.20
19060;DHT22;9663;48.996;8.334;2022-07-22T08:46:18;27.70;49.20
19060;DHT22;9663;48.996;8.334;2022-07-22T08:48:43;27.70;49.20
19060;DHT22;9663;48.996;8.334;2022-07-22T08:51:09;27.80;49.30
19060;DHT22;9663;48.996;8.334;2022-07-22T08:53:35;27.90;49.40
19060;DHT22;9663;48.996;8.334;2022-07-22T08:56:00;28.00;49.40
19060;DHT22;9663;48.996;8.334;2022-07-22T08:58:27;28.20;49.30
19060;DHT22;9663;48.996;8.334;2022-07-22T09:01:10;28.40;49.20
19060;DHT22;9663;48.996;8.334;2022-07-22T09:06:16;28.70;48.50
19060;DHT22;9663;48.996;8.334;2022-07-22T09:11:20;28.90;48.20
19060;DHT22;9663;48.996;8.334;2022-07-22T09:13:48;29.00;48.30
19060;DHT22;9663;48.996;8.334;2022-07-22T09:16:14;29.20;48.30
19060;DHT22;9663;48.996;8.334;2022-07-22T09:21:12;29.40;48.00
19060;DHT22;9663;48.996;8.334;2022-07-22T09:23:40;29.50;48.10
19060;DHT22;9663;48.996;8.334;2022-07-22T09:26:07;29.60;48.00
19060;DHT22;9663;48.996;8.334;2022-07-22T09:28:33;29.70;48.00
19060;DHT22;9663;48.996;8.334;2022-07-22T09:30:59;29.90;48.00
19060;DHT22;9663;48.996;8.334;2022-07-22T09:33:26;30.00;47.50
19060;DHT22;9663;48.996;8.334;2022-07-22T09:35:53;30.00;47.30
19060;DHT22;9663;48.996;8.334;2022-07-22T09:38:29;30.20;47.20
19060;DHT22;9663;48.996;8.334;2022-07-22T09:40:57;30.30;47.10
19060;DHT22;9663;48.996;8.334;2022-07-22T09:43:23;30.30;46.80
19060;DHT22;9663;48.996;8.334;2022-07-22T09:45:55;30.40;46.90
19060;DHT22;9663;48.996;8.334;2022-07-22T09:48:23;30.50;46.70
19060;DHT22;9663;48.996;8.334;2022-07-22T09:50:51;30.60;46.70
19060;DHT22;9663;48.996;8.334;2022-07-22T09:53:20;30.60;46.70
19060;DHT22;9663;48.996;8.334;2022-07-22T09:55:47;30.80;46.60
19060;DHT22;9663;48.996;8.334;2022-07-22T09:58:13;30.80;46.20
19060;DHT22;9663;48.996;8.334;2022-07-22T10:00:40;30.90;46.20
19060;DHT22;9663;48.996;8.334;2022-07-22T10:03:12;31.00;46.00
19060;DHT22;9663;48.996;8.334;2022-07-22T10:05:43;31.10;45.90
19060;DHT22;9663;48.996;8.334;2022-07-22T10:08:09;31.10;45.70
19060;DHT22;9663;48.996;8.334;2022-07-22T10:10:36;31.20;45.60
19060;DHT22;9663;48.996;8.334;2022-07-22T10:13:05;31.30;45.30
19060;DHT22;9663;48.996;8.334;2022-07-22T10:15:33;31.30;45.30
19060;DHT22;9663;48.996;8.334;2022-07-22T10:18:03;31.30;45.30
19060;DHT22;9663;48.996;8.334;2022-07-22T10:20:35;31.50;45.30
19060;DHT22;9663;48.996;8.334;2022-07-22T10:23:05;31.60;45.30
19060;DHT22;9663;48.996;8.334;2022-07-22T10:25:55;31.70;45.10
19060;DHT22;9663;48.996;8.334;2022-07-22T10:28:31;31.80;44.50
19060;DHT22;9663;48.996;8.334;2022-07-22T10:31:26;31.90;44.50
19060;DHT22;9663;48.996;8.334;2022-07-22T10:33:53;31.90;44.10
19060;DHT22;9663;48.996;8.334;2022-07-22T10:39:12;32.00;43.70
19060;DHT22;9663;48.996;8.334;2022-07-22T10:41:44;32.10;43.60
19060;DHT22;9663;48.996;8.334;2022-07-22T10:44:11;32.10;43.90
19060;DHT22;9663;48.996;8.334;2022-07-22T10:46:54;32.20;44.10
19060;DHT22;9663;48.996;8.334;2022-07-22T10:49:24;32.30;43.00
19060;DHT22;9663;48.996;8.334;2022-07-22T10:57:45;32.60;43.10
19060;DHT22;9663;48.996;8.334;2022-07-22T11:00:12;32.70;43.70
19060;DHT22;9663;48.996;8.334;2022-07-22T11:02:38;32.80;43.80
19060;DHT22;9663;48.996;8.334;2022-07-22T11:05:05;33.00;44.30
19060;DHT22;9663;48.996;8.334;2022-07-22T11:07:32;33.10;43.40
19060;DHT22;9663;48.996;8.334;2022-07-22T11:10:13;33.20;43.20
19060;DHT22;9663;48.996;8.334;2022-07-22T11:12:40;33.30;42.40
19060;DHT22;9663;48.996;8.334;2022-07-22T11:15:06;33.40;42.90
19060;DHT22;9663;48.996;8.334;2022-07-22T11:17:35;33.50;42.60
19060;DHT22;9663;48.996;8.334;2022-07-22T11:20:03;33.50;42.50
19060;DHT22;9663;48.996;8.334;2022-07-22T11:22:31;33.60;42.20
19060;DHT22;9663;48.996;8.334;2022-07-22T11:25:02;33.60;42.10
19060;DHT22;9663;48.996;8.334;2022-07-22T11:27:30;33.70;42.10
19060;DHT22;9663;48.996;8.334;2022-07-22T11:29:57;33.70;42.30
19060;DHT22;9663;48.996;8.334;2022-07-22T11:32:25;33.80;42.00
19060;DHT22;9663;48.996;8.334;2022-07-22T11:34:53;34.00;42.30
19060;DHT22;9663;48.996;8.334;2022-07-22T11:37:21;34.40;42.30
19060;DHT22;9663;48.996;8.334;2022-07-22T11:39:58;34.90;42.30
19060;DHT22;9663;48.996;8.334;2022-07-22T11:42:29;35.50;42.20
19060;DHT22;9663;48.996;8.334;2022-07-22T11:44:55;36.10;41.90
19060;DHT22;9663;48.996;8.334;2022-07-22T11:47:21;36.60;41.50
19060;DHT22;9663;48.996;8.334;2022-07-22T11:49:47;37.10;40.70
19060;DHT22;9663;48.996;8.334;2022-07-22T11:52:13;37.60;40.10
19060;DHT22;9663;48.996;8.334;2022-07-22T11:54:40;37.80;39.00
19060;DHT22;9663;48.996;8.334;2022-07-22T11:57:08;37.90;38.20
19060;DHT22;9663;48.996;8.334;2022-07-22T11:59:34;38.00;37.90
19060;DHT22;9663;48.996;8.334;2022-07-22T12:02:01;38.00;37.30
19060;DHT22;9663;48.996;8.334;2022-07-22T12:04:30;38.10;37.50
19060;DHT22;9663;48.996;8.334;2022-07-22T12:06:59;38.30;37.60
19060;DHT22;9663;48.996;8.334;2022-07-22T12:09:31;38.50;37.50
19060;DHT22;9663;48.996;8.334;2022-07-22T12:12:00;38.80;36.90
19060;DHT22;9663;48.996;8.334;2022-07-22T12:14:28;39.10;37.10
19060;DHT22;9663;48.996;8.334;2022-07-22T12:17:05;39.40;36.70
19060;DHT22;9663;48.996;8.334;2022-07-22T12:19:34;39.70;36.50
19060;DHT22;9663;48.996;8.334;2022-07-22T12:22:05;40.00;36.10
19060;DHT22;9663;48.996;8.334;2022-07-22T12:24:40;40.30;35.90
19060;DHT22;9663;48.996;8.334;2022-07-22T12:27:10;40.70;34.70
19060;DHT22;9663;48.996;8.334;2022-07-22T12:32:15;41.10;34.10
19060;DHT22;9663;48.996;8.334;2022-07-22T12:34:54;41.20;33.80
19060;DHT22;9663;48.996;8.334;2022-07-22T12:37:26;41.30;33.00
19060;DHT22;9663;48.996;8.334;2022-07-22T12:40:19;41.30;32.50
19060;DHT22;9663;48.996;8.334;2022-07-22T12:43:06;41.20;32.00
19060;DHT22;9663;48.996;8.334;2022-07-22T12:45:35;41.40;31.30
19060;DHT22;9663;48.996;8.334;2022-07-22T12:50:57;41.50;32.50
19060;DHT22;9663;48.996;8.334;2022-07-22T12:53:25;41.70;31.30
19060;DHT22;9663;48.996;8.334;2022-07-22T12:55:58;41.90;32.10
19060;DHT22;9663;48.996;8.334;2022-07-22T12:58:27;42.10;31.50
19060;DHT22;9663;48.996;8.334;2022-07-22T13:00:57;42.50;32.00
19060;DHT22;9663;48.996;8.334;2022-07-22T13:03:25;42.80;30.70
19060;DHT22;9663;48.996;8.334;2022-07-22T13:05:55;42.90;30.40
19060;DHT22;9663;48.996;8.334;2022-07-22T13:08:23;43.00;30.50
19060;DHT22;9663;48.996;8.334;2022-07-22T13:10:50;43.20;30.60
19060;DHT22;9663;48.996;8.334;2022-07-22T13:13:17;43.50;30.30
19060;DHT22;9663;48.996;8.334;2022-07-22T13:15:43;43.80;29.70
19060;DHT22;9663;48.996;8.334;2022-07-22T13:18:09;43.90;29.30
19060;DHT22;9663;48.996;8.334;2022-07-22T13:20:34;43.90;29.20
19060;DHT22;9663;48.996;8.334;2022-07-22T13:23:00;43.80;28.60
19060;DHT22;9663;48.996;8.334;2022-07-22T13:25:26;43.60;28.30
19060;DHT22;9663;48.996;8.334;2022-07-22T13:27:55;43.50;28.60
19060;DHT22;9663;48.996;8.334;2022-07-22T13:30:21;43.40;28.30
19060;DHT22;9663;48.996;8.334;2022-07-22T13:32:48;43.40;28.50
19060;DHT22;9663;48.996;8.334;2022-07-22T13:35:14;43.50;28.30
19060;DHT22;9663;48.996;8.334;2022-07-22T13:37:40;43.50;28.30
19060;DHT22;9663;48.996;8.334;2022-07-22T13:40:07;43.50;28.30
19060;DHT22;9663;48.996;8.334;2022-07-22T13:42:33;43.60;28.00
19060;DHT22;9663;48.996;8.334;2022-07-22T13:44:59;43.50;27.70
19060;DHT22;9663;48.996;8.334;2022-07-22T13:47:24;43.60;27.90
19060;DHT22;9663;48.996;8.334;2022-07-22T13:49:52;43.60;27.80
19060;DHT22;9663;48.996;8.334;2022-07-22T13:52:18;43.80;27.60
19060;DHT22;9663;48.996;8.334;2022-07-22T13:54:45;43.80;27.50
19060;DHT22;9663;48.996;8.334;2022-07-22T13:57:11;43.80;27.00
19060;DHT22;9663;48.996;8.334;2022-07-22T13:59:38;43.60;26.90
19060;DHT22;9663;48.996;8.334;2022-07-22T14:02:03;43.20;26.70
19060;DHT22;9663;48.996;8.334;2022-07-22T14:04:30;42.80;26.80
19060;DHT22;9663;48.996;8.334;2022-07-22T14:06:56;42.30;26.90
19060;DHT22;9663;48.996;8.334;2022-07-22T14:09:22;42.00;27.10
19060;DHT22;9663;48.996;8.334;2022-07-22T14:11:48;41.60;26.90
19060;DHT22;9663;48.996;8.334;2022-07-22T14:14:13;41.30;27.10
19060;DHT22;9663;48.996;8.334;2022-07-22T14:16:39;41.00;27.20
19060;DHT22;9663;48.996;8.334;2022-07-22T14:19:10;40.70;27.30
19060;DHT22;9663;48.996;8.334;2022-07-22T14:21:40;40.40;27.50
19060;DHT22;9663;48.996;8.334;2022-07-22T14:24:08;40.30;27.80
19060;DHT22;9663;48.996;8.334;2022-07-22T14:26:34;40.30;27.90
19060;DHT22;9663;48.996;8.334;2022-07-22T14:29:02;40.30;27.90
19060;DHT22;9663;48.996;8.334;2022-07-22T14:31:28;40.50;28.00
19060;DHT22;9663;48.996;8.334;2022-07-22T14:33:55;40.70;27.70
19060;DHT22;9663;48.996;8.334;2022-07-22T14:36:21;40.90;27.60
19060;DHT22;9663;48.996;8.334;2022-07-22T14:38:47;41.10;27.80
19060;DHT22;9663;48.996;8.334;2022-07-22T14:41:16;41.40;27.90
19060;DHT22;9663;48.996;8.334;2022-07-22T14:43:42;41.80;27.90
19060;DHT22;9663;48.996;8.334;2022-07-22T14:46:08;42.20;27.80
19060;DHT22;9663;48.996;8.334;2022-07-22T14:48:37;42.50;27.60
19060;DHT22;9663;48.996;8.334;2022-07-22T14:51:04;42.70;27.20
19060;DHT22;9663;48.996;8.334;2022-07-22T14:53:31;42.90;26.80
19060;DHT22;9663;48.996;8.334;2022-07-22T14:55:57;43.20;26.90
19060;DHT22;9663;48.996;8.334;2022-07-22T14:58:23;43.40;26.60
19060;DHT22;9663;48.996;8.334;2022-07-22T15:00:48;43.60;26.30
19060;DHT22;9663;48.996;8.334;2022-07-22T15:03:14;43.70;26.10
19060;DHT22;9663;48.996;8.334;2022-07-22T15:05:40;43.80;25.90
19060;DHT22;9663;48.996;8.334;2022-07-22T15:08:08;43.80;25.80
19060;DHT22;9663;48.996;8.334;2022-07-22T15:10:34;43.90;25.50
19060;DHT22;9663;48.996;8.334;2022-07-22T15:13:00;44.00;25.60
19060;DHT22;9663;48.996;8.334;2022-07-22T15:15:26;44.20;25.60
19060;DHT22;9663;48.996;8.334;2022-07-22T15:17:52;44.40;25.60
19060;DHT22;9663;48.996;8.334;2022-07-22T15:20:18;44.60;25.40
19060;DHT22;9663;48.996;8.334;2022-07-22T15:22:43;44.70;25.10
19060;DHT22;9663;48.996;8.334;2022-07-22T15:25:10;44.90;25.20
19060;DHT22;9663;48.996;8.334;2022-07-22T15:27:35;45.10;25.10
19060;DHT22;9663;48.996;8.334;2022-07-22T15:30:07;45.30;24.80
19060;DHT22;9663;48.996;8.334;2022-07-22T15:32:36;45.30;24.50
19060;DHT22;9663;48.996;8.334;2022-07-22T15:35:03;45.50;24.70
19060;DHT22;9663;48.996;8.334;2022-07-22T15:37:32;45.80;24.70
19060;DHT22;9663;48.996;8.334;2022-07-22T15:39:57;45.90;24.50
19060;DHT22;9663;48.996;8.334;2022-07-22T15:42:24;46.00;23.90
19060;DHT22;9663;48.996;8.334;2022-07-22T15:44:49;45.70;23.30
19060;DHT22;9663;48.996;8.334;2022-07-22T15:47:15;45.20;23.10
19060;DHT22;9663;48.996;8.334;2022-07-22T15:49:41;44.70;23.30
19060;DHT22;9663;48.996;8.334;2022-07-22T15:52:07;44.20;23.50
19060;DHT22;9663;48.996;8.334;2022-07-22T15:54:32;43.90;23.80
19060;DHT22;9663;48.996;8.334;2022-07-22T15:57:01;43.60;23.90
19060;DHT22;9663;48.996;8.334;2022-07-22T15:59:45;43.50;24.20
19060;DHT22;9663;48.996;8.334;2022-07-22T16:02:12;43.50;24.50
19060;DHT22;9663;48.996;8.334;2022-07-22T16:04:37;43.80;24.80
19060;DHT22;9663;48.996;8.334;2022-07-22T16:07:03;44.20;24.90